Overview Statistics Trail Chart Weather Telemetry Raw packets
 

This is the latest recevied weather packets stored in our database for station/object SA7BGG-5. If no packets are shown the sender has not sent any weather packets the latest 10 day(s).

<< 54 55 56 57 58 59 60 >>
Time Temp. Humidity Pressure Rain* Wind** Luminosity Snow
1777451704 11.67° C 51% 1035 hPa - - - -
1777451404 11.67° C 51% 1035 hPa - - - -
1777451104 11.11° C 52% 1035 hPa - - - -
1777450803 11.11° C 52% 1035 hPa - - - -
1777450503 10.56° C 57% 1035 hPa - - - -
1777450203 10.56° C 57% 1035 hPa - - - -
1777449902 10° C 61% 1035 hPa - - - -
1777449602 10° C 61% 1035 hPa - - - -
1777449302 8.33° C 67% 1035 hPa - - - -
1777449001 8.33° C 67% 1035 hPa - - - -
1777448701 7.22° C 69% 1035 hPa - - - -
1777448401 7.22° C 69% 1035 hPa - - - -
1777448100 6.67° C 74% 1035 hPa - - - -
1777447805 6.67° C 74% 1035 hPa - - - -
1777447505 5.56° C 76% 1035 hPa - - - -
1777447204 5.56° C 76% 1035 hPa - - - -
1777446904 5° C 79% 1035 hPa - - - -
1777446603 5° C 79% 1035 hPa - - - -
1777446303 4.44° C 80% 1035 hPa - - - -
1777446002 4.44° C 80% 1035 hPa - - - -
1777445702 3.89° C 81% 1035 hPa - - - -
1777445402 3.89° C 81% 1035 hPa - - - -
1777445101 3.33° C 81% 1035 hPa - - - -
1777444801 3.33° C 81% 1035 hPa - - - -
1777444501 3.33° C 82% 1035 hPa - - - -

* Rain since midnight (hover to see other rain measurements)
** Current wind speed in m/s (hover to see current wind gust speed)